Time,TemperatureF,DewpointF,PressureIn,WindDirection,WindDirectionDegrees,WindSpeedMPH,WindSpeedGustMPH,Humidity,HourlyPrecipIn,Conditions,Clouds,dailyrainin,SoftwareType,DateUTC
2013-05-25 00:02:00,67.8,47.9,29.94,North,0,0.0,0.0,49,0.00,,,0.00,VWS V14.01,2013-05-24 21:02:00,
2013-05-25 00:07:00,67.6,47.7,29.94,NW,315,0.4,7.6,49,0.00,,,0.00,VWS V14.01,2013-05-24 21:07:00,
2013-05-25 00:12:00,67.6,47.7,29.94,WNW,292,1.5,6.0,49,0.00,,,0.00,VWS V14.01,2013-05-24 21:12:00,
2013-05-25 00:17:00,67.6,48.3,29.93,West,270,4.0,5.1,50,0.00,,,0.00,VWS V14.01,2013-05-24 21:17:00,
2013-05-25 00:22:00,67.6,48.3,29.93,WNW,292,1.5,1.5,50,0.00,,,0.00,VWS V14.01,2013-05-24 21:22:00,
2013-05-25 00:27:00,67.6,48.8,29.93,West,270,2.0,2.0,51,0.00,,,0.00,VWS V14.01,2013-05-24 21:27:00,
2013-05-25 00:32:00,67.5,49.8,29.93,West,270,3.1,3.1,53,0.00,,,0.00,VWS V14.01,2013-05-24 21:32:00,
2013-05-25 00:37:00,67.3,50.1,29.93,NW,315,6.0,6.0,54,0.00,,,0.00,VWS V14.01,2013-05-24 21:37:00,
2013-05-25 00:43:00,67.1,48.9,29.93,WNW,292,6.9,8.5,52,0.00,,,0.00,VWS V14.01,2013-05-24 21:43:00,
2013-05-25 00:48:00,67.1,48.9,29.93,NW,315,4.9,4.9,52,0.00,,,0.00,VWS V14.01,2013-05-24 21:48:00,
2013-05-25 00:53:00,66.9,48.7,29.92,NW,315,1.1,1.1,52,0.00,,,0.00,VWS V14.01,2013-05-24 21:53:00,
2013-05-25 00:58:00,66.9,48.7,29.92,WNW,292,6.0,6.0,52,0.00,,,0.00,VWS V14.01,2013-05-24 21:58:00,
2013-05-25 01:03:00,67.1,49.4,29.92,NW,315,10.7,10.7,53,0.00,,,0.00,VWS V14.01,2013-05-24 22:03:00,
2013-05-25 01:08:00,66.9,49.2,29.91,North,0,6.9,9.3,53,0.00,,,0.00,VWS V14.01,2013-05-24 22:08:00,
2013-05-25 01:13:00,66.7,49.0,29.91,West,270,6.9,7.8,53,0.00,,,0.00,VWS V14.01,2013-05-24 22:13:00,
2013-05-25 01:18:00,66.7,49.0,29.91,NNW,338,8.0,8.0,53,0.00,,,0.00,VWS V14.01,2013-05-24 22:18:00,
2013-05-25 01:23:00,66.9,48.7,29.91,NW,315,4.9,11.6,52,0.00,,,0.00,VWS V14.01,2013-05-24 22:23:00,
2013-05-25 01:28:00,66.9,48.7,29.91,WNW,292,10.9,10.9,52,0.00,,,0.00,VWS V14.01,2013-05-24 22:28:00,
2013-05-25 01:33:00,66.9,48.7,29.92,WNW,292,6.7,6.7,52,0.00,,,0.00,VWS V14.01,2013-05-24 22:33:00,
2013-05-25 01:38:00,66.9,48.7,29.91,NNW,338,8.0,8.0,52,0.00,,,0.00,VWS V14.01,2013-05-24 22:38:00,
2013-05-25 01:43:00,66.7,48.5,29.91,West,270,6.4,6.4,52,0.00,,,0.00,VWS V14.01,2013-05-24 22:43:00,
2013-05-25 01:48:00,66.7,48.5,29.91,NW,315,4.9,4.9,52,0.00,,,0.00,VWS V14.01,2013-05-24 22:48:00,
2013-05-25 01:53:00,66.7,48.5,29.92,West,270,0.0,0.2,52,0.00,,,0.00,VWS V14.01,2013-05-24 22:53:00,
2013-05-25 01:58:00,66.7,48.5,29.92,WNW,292,0.0,0.0,52,0.00,,,0.00,VWS V14.01,2013-05-24 22:58:00,
2013-05-25 02:03:00,66.4,48.7,29.92,WSW,248,0.0,0.0,53,0.00,,,0.00,VWS V14.01,2013-05-24 23:03:00,
2013-05-25 02:08:00,66.4,48.7,29.92,NW,315,0.0,0.0,53,0.00,,,0.00,VWS V14.01,2013-05-24 23:08:00,
2013-05-25 02:14:00,66.2,48.0,29.92,WNW,292,9.3,9.3,52,0.00,,,0.00,VWS V14.01,2013-05-24 23:14:00,
2013-05-25 02:19:00,66.4,48.2,29.92,NW,315,5.3,5.3,52,0.00,,,0.00,VWS V14.01,2013-05-24 23:19:00,
2013-05-25 02:24:00,66.2,48.5,29.91,WNW,292,10.7,10.7,53,0.00,,,0.00,VWS V14.01,2013-05-24 23:24:00,
2013-05-25 02:29:00,66.2,48.5,29.91,WNW,292,4.6,4.6,53,0.00,,,0.00,VWS V14.01,2013-05-24 23:29:00,
2013-05-25 02:34:00,66.2,48.5,29.92,NNW,338,1.1,1.1,53,0.00,,,0.00,VWS V14.01,2013-05-24 23:34:00,
2013-05-25 02:39:00,65.8,48.7,29.92,West,270,8.2,8.2,54,0.00,,,0.00,VWS V14.01,2013-05-24 23:39:00,
2013-05-25 02:44:00,65.8,48.7,29.91,West,270,8.0,8.0,54,0.00,,,0.00,VWS V14.01,2013-05-24 23:44:00,
2013-05-25 02:49:00,65.8,48.7,29.91,West,270,5.8,5.8,54,0.00,,,0.00,VWS V14.01,2013-05-24 23:49:00,
2013-05-25 02:54:00,65.8,48.7,29.91,NW,315,7.3,7.3,54,0.00,,,0.00,VWS V14.01,2013-05-24 23:54:00,
2013-05-25 02:59:00,65.7,48.6,29.91,WNW,292,5.3,5.3,54,0.00,,,0.00,VWS V14.01,2013-05-24 23:59:00,
2013-05-25 03:04:00,65.7,48.6,29.91,WNW,292,3.8,4.9,54,0.00,,,0.00,VWS V14.01,2013-05-25 00:04:00,
2013-05-25 03:09:00,65.7,48.1,29.91,WNW,292,7.3,7.3,53,0.00,,,0.00,VWS V14.01,2013-05-25 00:09:00,
2013-05-25 03:14:00,65.5,48.4,29.91,WNW,292,2.0,4.6,54,0.00,,,0.00,VWS V14.01,2013-05-25 00:14:00,
2013-05-25 03:19:00,65.5,48.4,29.91,WNW,292,5.5,7.6,54,0.00,,,0.00,VWS V14.01,2013-05-25 00:19:00,
2013-05-25 03:24:00,65.5,47.9,29.91,WNW,292,2.9,4.6,53,0.00,,,0.00,VWS V14.01,2013-05-25 00:24:00,
2013-05-25 03:29:00,65.3,47.7,29.92,NW,315,0.0,0.0,53,0.00,,,0.00,VWS V14.01,2013-05-25 00:29:00,
2013-05-25 03:34:00,65.3,47.7,29.92,WNW,292,0.0,0.0,53,0.00,,,0.00,VWS V14.01,2013-05-25 00:34:00,
2013-05-25 03:39:00,65.3,47.7,29.92,West,270,4.0,4.0,53,0.00,,,0.00,VWS V14.01,2013-05-25 00:39:00,
2013-05-25 03:44:00,65.3,47.7,29.92,West,270,0.0,0.2,53,0.00,,,0.00,VWS V14.01,2013-05-25 00:44:00,
2013-05-25 03:49:00,65.3,47.7,29.92,West,270,0.0,0.0,53,0.00,,,0.00,VWS V14.01,2013-05-25 00:49:00,
2013-05-25 03:55:00,65.1,47.5,29.92,West,270,0.0,0.0,53,0.00,,,0.00,VWS V14.01,2013-05-25 00:55:00,
2013-05-25 04:00:00,64.8,47.2,29.92,North,0,0.0,0.0,53,0.00,,,0.00,VWS V14.01,2013-05-25 01:00:00,
2013-05-25 04:05:00,64.8,47.2,29.92,North,0,0.0,0.0,53,0.00,,,0.00,VWS V14.01,2013-05-25 01:05:00,
2013-05-25 04:10:00,64.4,47.4,29.92,North,0,0.0,0.0,54,0.00,,,0.00,VWS V14.01,2013-05-25 01:10:00,
2013-05-25 04:15:00,64.4,47.4,29.92,North,0,0.0,0.0,54,0.00,,,0.00,VWS V14.01,2013-05-25 01:15:00,
2013-05-25 04:20:00,64.2,47.7,29.92,North,0,0.0,0.0,55,0.00,,,0.00,VWS V14.01,2013-05-25 01:20:00,
2013-05-25 04:25:00,64.0,47.5,29.92,North,0,0.0,0.0,55,0.00,,,0.00,VWS V14.01,2013-05-25 01:25:00,
2013-05-25 04:30:00,63.9,47.4,29.92,North,0,0.0,0.0,55,0.00,,,0.00,VWS V14.01,2013-05-25 01:30:00,
2013-05-25 04:35:00,63.7,47.2,29.92,North,0,0.0,0.0,55,0.00,,,0.00,VWS V14.01,2013-05-25 01:35:00,
2013-05-25 04:40:00,63.5,47.0,29.92,North,0,0.0,0.0,55,0.00,,,0.00,VWS V14.01,2013-05-25 01:40:00,
2013-05-25 04:45:00,63.5,47.5,29.92,West,270,0.0,0.0,56,0.00,,,0.00,VWS V14.01,2013-05-25 01:45:00,
2013-05-25 04:50:00,63.5,47.5,29.92,West,270,0.0,0.0,56,0.00,,,0.00,VWS V14.01,2013-05-25 01:50:00,
2013-05-25 04:55:00,63.7,47.2,29.92,WNW,292,0.0,0.0,55,0.00,,,0.00,VWS V14.01,2013-05-25 01:55:00,
2013-05-25 05:00:00,63.7,47.2,29.92,WNW,292,0.0,0.0,55,0.00,,,0.00,VWS V14.01,2013-05-25 02:00:00,
2013-05-25 05:05:00,63.7,47.2,29.92,WNW,292,0.0,0.0,55,0.00,,,0.00,VWS V14.01,2013-05-25 02:05:00,
2013-05-25 05:10:00,63.7,47.2,29.92,West,270,4.4,4.4,55,0.00,,,0.00,VWS V14.01,2013-05-25 02:10:00,
2013-05-25 05:15:00,63.7,47.7,29.92,West,270,1.3,1.3,56,0.00,,,0.00,VWS V14.01,2013-05-25 02:15:00,
2013-05-25 05:21:00,63.7,47.7,29.92,West,270,0.0,0.0,56,0.00,,,0.00,VWS V14.01,2013-05-25 02:21:00,
2013-05-25 05:26:00,63.5,47.5,29.92,West,270,0.0,0.0,56,0.00,,,0.00,VWS V14.01,2013-05-25 02:26:00,
2013-05-25 05:31:00,63.5,48.0,29.92,WNW,292,0.2,4.0,57,0.00,,,0.00,VWS V14.01,2013-05-25 02:31:00,
2013-05-25 05:36:00,63.5,48.0,29.92,WNW,292,0.0,0.0,57,0.00,,,0.00,VWS V14.01,2013-05-25 02:36:00,
2013-05-25 05:41:00,63.5,48.0,29.92,WNW,292,0.0,0.0,57,0.00,,,0.00,VWS V14.01,2013-05-25 02:41:00,
2013-05-25 05:46:00,63.1,47.6,29.92,WNW,292,0.0,0.0,57,0.00,,,0.00,VWS V14.01,2013-05-25 02:46:00,
2013-05-25 05:51:00,63.0,47.5,29.92,West,270,0.0,0.0,57,0.00,,,0.00,VWS V14.01,2013-05-25 02:51:00,
2013-05-25 05:56:00,63.0,47.5,29.93,WNW,292,3.5,3.5,57,0.00,,,0.00,VWS V14.01,2013-05-25 02:56:00,
2013-05-25 06:01:00,63.1,47.1,29.93,West,270,0.0,0.0,56,0.00,,,0.00,VWS V14.01,2013-05-25 03:01:00,
2013-05-25 06:06:00,63.1,47.1,29.93,West,270,0.0,0.0,56,0.00,,,0.00,VWS V14.01,2013-05-25 03:06:00,
2013-05-25 06:11:00,63.5,47.0,29.93,WNW,292,0.0,0.0,55,0.00,,,0.00,VWS V14.01,2013-05-25 03:11:00,
2013-05-25 06:16:00,63.9,46.9,29.93,West,270,0.0,1.3,54,0.00,,,0.00,VWS V14.01,2013-05-25 03:16:00,
2013-05-25 06:21:00,64.2,47.2,29.93,WNW,292,1.3,1.3,54,0.00,,,0.00,VWS V14.01,2013-05-25 03:21:00,
2013-05-25 06:27:00,64.4,47.4,29.93,West,270,2.2,2.2,54,0.00,,,0.00,VWS V14.01,2013-05-25 03:27:00,
2013-05-25 06:28:00,64.4,47.4,29.93,West,270,0.0,2.2,54,0.00,,,0.00,VWS V14.01,2013-05-25 03:28:00,
2013-05-25 06:29:00,64.4,47.4,29.93,West,270,0.0,0.0,54,0.00,,,0.00,VWS V14.01,2013-05-25 03:29:00,
2013-05-25 09:21:00,71.2,48.2,29.95,West,270,0.4,0.4,44,0.00,,,0.00,VWS V14.01,2013-05-25 06:21:00,
2013-05-25 09:22:00,71.2,48.2,29.95,West,270,0.4,0.4,44,0.00,,,0.00,VWS V14.01,2013-05-25 06:22:00,
2013-05-25 09:23:00,71.6,47.9,29.95,NW,315,2.0,2.0,43,0.00,,,0.00,VWS V14.01,2013-05-25 06:23:00,
2013-05-25 09:24:00,71.6,47.9,29.95,NW,315,2.0,2.0,43,0.00,,,0.00,VWS V14.01,2013-05-25 06:24:00,
2013-05-25 09:25:00,71.6,47.3,29.95,NNW,338,7.3,7.3,42,0.00,,,0.00,VWS V14.01,2013-05-25 06:25:00,
2013-05-25 09:26:00,71.6,47.3,29.95,West,270,4.2,7.3,42,0.00,,,0.00,VWS V14.01,2013-05-25 06:26:00,
2013-05-25 09:27:00,71.6,47.9,29.95,WNW,292,4.2,4.2,43,0.00,,,0.00,VWS V14.01,2013-05-25 06:27:00,
2013-05-25 09:28:00,71.6,47.3,29.95,NNW,338,9.1,9.1,42,0.00,,,0.00,VWS V14.01,2013-05-25 06:28:00,
2013-05-25 09:29:00,71.6,47.3,29.95,WNW,292,6.7,9.1,42,0.00,,,0.00,VWS V14.01,2013-05-25 06:29:00,
2013-05-25 09:30:00,71.6,47.3,29.95,West,270,2.0,6.7,42,0.00,,,0.00,VWS V14.01,2013-05-25 06:30:00,
2013-05-25 09:31:00,71.6,47.3,29.95,West,270,2.0,2.0,42,0.00,,,0.00,VWS V14.01,2013-05-25 06:31:00,
2013-05-25 09:32:00,71.6,47.9,29.95,WNW,292,8.5,8.5,43,0.00,,,0.00,VWS V14.01,2013-05-25 06:32:00,
2013-05-25 09:33:00,71.6,47.9,29.95,NNW,338,4.2,8.5,43,0.00,,,0.00,VWS V14.01,2013-05-25 06:33:00,
2013-05-25 09:34:00,71.6,47.3,29.95,NNW,338,4.4,4.4,42,0.00,,,0.00,VWS V14.01,2013-05-25 06:34:00,
2013-05-25 09:44:00,72.3,47.9,29.95,WNW,292,0.0,0.0,42,0.00,,,0.00,VWS V14.01,2013-05-25 06:44:00,
2013-05-25 09:50:00,72.7,47.0,29.95,SSW,202,0.0,6.0,40,0.00,,,0.00,VWS V14.01,2013-05-25 06:50:00,
2013-05-25 09:55:00,73.0,47.9,29.95,WNW,292,0.0,0.0,41,0.00,,,0.00,VWS V14.01,2013-05-25 06:55:00,
2013-05-25 10:00:00,73.4,47.6,29.95,WSW,248,0.0,0.0,40,0.00,,,0.00,VWS V14.01,2013-05-25 07:00:00,
2013-05-25 10:05:00,74.5,47.9,29.95,West,270,0.0,0.0,39,0.00,,,0.00,VWS V14.01,2013-05-25 07:05:00,
2013-05-25 10:10:00,74.5,47.2,29.95,WSW,248,3.5,3.5,38,0.00,,,0.00,VWS V14.01,2013-05-25 07:10:00,
2013-05-25 10:15:00,74.5,47.2,29.95,WSW,248,0.6,0.6,38,0.00,,,0.00,VWS V14.01,2013-05-25 07:15:00,
2013-05-25 10:20:00,74.8,47.5,29.95,West,270,1.5,1.5,38,0.00,,,0.00,VWS V14.01,2013-05-25 07:20:00,
2013-05-25 10:25:00,74.8,46.8,29.95,SW,225,1.1,5.3,37,0.00,,,0.00,VWS V14.01,2013-05-25 07:25:00,
2013-05-25 10:31:00,75.2,47.1,29.95,West,270,0.0,0.6,37,0.00,,,0.00,VWS V14.01,2013-05-25 07:31:00,
2013-05-25 10:40:00,75.7,48.3,29.95,West,270,2.6,2.6,38,0.00,,,0.00,VWS V14.01,2013-05-25 07:40:00,
2013-05-25 10:46:00,76.1,47.9,29.95,WSW,248,4.0,4.0,37,0.00,,,0.00,VWS V14.01,2013-05-25 07:46:00,
2013-05-25 10:51:00,76.1,47.9,29.95,SW,225,0.0,0.0,37,0.00,,,0.00,VWS V14.01,2013-05-25 07:51:00,
2013-05-25 10:56:00,76.1,47.2,29.96,West,270,6.9,6.9,36,0.00,,,0.00,VWS V14.01,2013-05-25 07:56:00,
2013-05-25 11:01:00,75.9,47.8,29.96,West,270,1.3,1.3,37,0.00,,,0.00,VWS V14.01,2013-05-25 08:01:00,
2013-05-25 11:06:00,76.1,47.9,29.96,West,270,4.9,4.9,37,0.00,,,0.00,VWS V14.01,2013-05-25 08:06:00,
2013-05-25 11:11:00,76.1,47.2,29.96,West,270,4.2,4.2,36,0.00,,,0.00,VWS V14.01,2013-05-25 08:11:00,
2013-05-25 11:16:00,76.3,47.4,29.96,SW,225,0.0,0.0,36,0.00,,,0.00,VWS V14.01,2013-05-25 08:16:00,
2013-05-25 11:22:00,76.8,45.5,29.96,NW,315,0.6,0.6,33,0.00,,,0.00,VWS V14.01,2013-05-25 08:22:00,
2013-05-25 11:28:00,77.2,45.0,29.96,SSW,202,0.0,0.0,32,0.00,,,0.00,VWS V14.01,2013-05-25 08:28:00,
2013-05-25 11:34:00,77.2,45.9,29.96,NNW,338,2.0,8.7,33,0.00,,,0.00,VWS V14.01,2013-05-25 08:34:00,
2013-05-25 11:39:00,77.5,46.1,29.96,SW,225,4.9,4.9,33,0.00,,,0.00,VWS V14.01,2013-05-25 08:39:00,
2013-05-25 11:44:00,77.5,46.1,29.96,West,270,0.0,0.0,33,0.00,,,0.00,VWS V14.01,2013-05-25 08:44:00,
2013-05-25 11:49:00,77.5,46.1,29.96,NNW,338,0.0,0.6,33,0.00,,,0.00,VWS V14.01,2013-05-25 08:49:00,
2013-05-25 11:56:00,77.5,47.7,29.96,West,270,2.4,2.4,35,0.00,,,0.00,VWS V14.01,2013-05-25 08:56:00,
2013-05-25 12:02:00,77.5,48.4,29.96,WSW,248,0.0,0.0,36,0.00,,,0.00,VWS V14.01,2013-05-25 09:02:00,
2013-05-25 12:09:00,77.9,48.0,29.96,SSW,202,8.2,8.2,35,0.00,,,0.00,VWS V14.01,2013-05-25 09:09:00,
2013-05-25 12:15:00,77.9,48.0,29.96,SW,225,0.0,0.0,35,0.00,,,0.00,VWS V14.01,2013-05-25 09:15:00,
2013-05-25 12:21:00,78.4,48.5,29.96,SW,225,5.8,5.8,35,0.00,,,0.00,VWS V14.01,2013-05-25 09:21:00,
2013-05-25 12:27:00,78.8,46.5,29.96,West,270,0.0,0.0,32,0.00,,,0.00,VWS V14.01,2013-05-25 09:27:00,
2013-05-25 12:32:00,78.4,46.9,29.95,WSW,248,0.6,0.6,33,0.00,,,0.00,VWS V14.01,2013-05-25 09:32:00,
2013-05-25 12:38:00,79.5,47.0,29.95,WSW,248,0.0,3.8,32,0.00,,,0.00,VWS V14.01,2013-05-25 09:38:00,
2013-05-25 12:43:00,79.5,46.2,29.94,West,270,0.2,3.1,31,0.00,,,0.00,VWS V14.01,2013-05-25 09:43:00,
2013-05-25 12:48:00,79.5,45.3,29.95,South,180,4.0,4.0,30,0.00,,,0.00,VWS V14.01,2013-05-25 09:48:00,
2013-05-25 12:54:00,79.9,46.6,29.95,West,270,5.3,5.3,31,0.00,,,0.00,VWS V14.01,2013-05-25 09:54:00,
2013-05-25 13:01:00,79.9,45.7,29.95,West,270,0.6,7.8,30,0.00,,,0.00,VWS V14.01,2013-05-25 10:01:00,
2013-05-25 13:07:00,79.5,45.3,29.95,SSW,202,0.8,9.3,30,0.00,,,0.00,VWS V14.01,2013-05-25 10:07:00,
2013-05-25 13:12:00,80.2,46.8,29.95,WNW,292,9.8,9.8,31,0.00,,,0.00,VWS V14.01,2013-05-25 10:12:00,
2013-05-25 13:18:00,80.1,46.7,29.95,SSW,202,2.4,2.4,31,0.00,,,0.00,VWS V14.01,2013-05-25 10:18:00,
2013-05-25 13:24:00,80.6,47.2,29.94,WNW,292,0.6,0.6,31,0.00,,,0.00,VWS V14.01,2013-05-25 10:24:00,
2013-05-25 13:30:00,80.1,46.7,29.95,South,180,12.9,12.9,31,0.00,,,0.00,VWS V14.01,2013-05-25 10:30:00,
2013-05-25 13:37:00,79.9,47.4,29.94,North,0,7.3,7.3,32,0.00,,,0.00,VWS V14.01,2013-05-25 10:37:00,
2013-05-25 13:43:00,79.9,45.7,29.95,West,270,0.0,0.2,30,0.00,,,0.00,VWS V14.01,2013-05-25 10:43:00,
2013-05-25 13:48:00,80.6,46.3,29.94,South,180,7.6,7.6,30,0.00,,,0.00,VWS V14.01,2013-05-25 10:48:00,
2013-05-25 13:53:00,80.1,46.7,29.94,WSW,248,12.3,12.3,31,0.00,,,0.00,VWS V14.01,2013-05-25 10:53:00,
2013-05-25 13:58:00,79.5,47.0,29.94,West,270,0.0,2.4,32,0.00,,,0.00,VWS V14.01,2013-05-25 10:58:00,
2013-05-25 14:02:00,79.7,46.4,29.94,South,180,10.0,12.0,31,0.00,,,0.00,VWS V14.01,2013-05-25 11:02:00,
2013-05-25 14:03:00,79.7,46.4,29.94,SSW,202,14.5,14.5,31,0.00,,,0.00,VWS V14.01,2013-05-25 11:03:00,
2013-05-25 14:04:00,79.7,46.4,29.94,SSW,202,5.8,14.5,31,0.00,,,0.00,VWS V14.01,2013-05-25 11:04:00,
2013-05-25 14:05:00,79.7,47.2,29.94,South,180,7.1,7.1,32,0.00,,,0.00,VWS V14.01,2013-05-25 11:05:00,
2013-05-25 14:06:00,79.5,47.0,29.94,SSW,202,11.8,14.3,32,0.00,,,0.00,VWS V14.01,2013-05-25 11:06:00,
2013-05-25 14:07:00,79.3,46.9,29.94,SW,225,7.6,11.8,32,0.00,,,0.00,VWS V14.01,2013-05-25 11:07:00,
2013-05-25 14:08:00,79.3,46.9,29.94,SSW,202,9.3,10.5,32,0.00,,,0.00,VWS V14.01,2013-05-25 11:08:00,
2013-05-25 14:09:00,79.3,46.9,29.94,SSW,202,14.3,14.3,32,0.00,,,0.00,VWS V14.01,2013-05-25 11:09:00,
2013-05-25 14:10:00,79.0,47.4,29.94,SSW,202,16.3,16.3,33,0.00,,,0.00,VWS V14.01,2013-05-25 11:10:00,
2013-05-25 14:20:00,78.4,48.5,29.94,SW,225,10.5,11.1,35,0.00,,,0.00,VWS V14.01,2013-05-25 11:20:00,
2013-05-25 15:22:00,78.8,48.8,29.93,SSW,202,16.3,16.3,35,0.00,,,0.00,VWS V14.01,2013-05-25 12:22:00,
2013-05-25 15:30:00,79.3,46.9,29.93,West,270,6.4,6.4,32,0.00,,,0.00,VWS V14.01,2013-05-25 12:30:00,
2013-05-25 15:35:00,79.9,49.0,29.93,WSW,248,3.1,3.1,34,0.00,,,0.00,VWS V14.01,2013-05-25 12:35:00,
2013-05-25 15:40:00,79.5,47.0,29.92,SSW,202,6.7,11.4,32,0.00,,,0.00,VWS V14.01,2013-05-25 12:40:00,
2013-05-25 15:45:00,79.7,47.2,29.93,SW,225,17.4,17.4,32,0.00,,,0.00,VWS V14.01,2013-05-25 12:45:00,
2013-05-25 15:50:00,79.3,48.5,29.93,SSW,202,7.6,8.7,34,0.00,,,0.00,VWS V14.01,2013-05-25 12:50:00,
2013-05-25 15:56:00,79.7,47.2,29.93,WSW,248,7.1,10.9,32,0.00,,,0.00,VWS V14.01,2013-05-25 12:56:00,
2013-05-25 16:01:00,79.7,47.2,29.93,SW,225,2.2,8.5,32,0.00,,,0.00,VWS V14.01,2013-05-25 13:01:00,
2013-05-25 16:06:00,80.1,46.7,29.93,WSW,248,4.9,6.0,31,0.00,,,0.00,VWS V14.01,2013-05-25 13:06:00,
2013-05-25 16:11:00,79.9,48.2,29.93,SW,225,10.5,10.5,33,0.00,,,0.00,VWS V14.01,2013-05-25 13:11:00,
2013-05-25 16:30:00,80.4,48.7,29.93,West,270,5.5,5.5,33,0.00,,,0.00,VWS V14.01,2013-05-25 13:30:00,
2013-05-25 16:35:00,79.7,48.8,29.93,SW,225,7.1,7.1,34,0.00,,,0.00,VWS V14.01,2013-05-25 13:35:00,
2013-05-25 16:45:00,78.8,49.6,29.94,SSW,202,2.2,6.4,36,0.00,,,0.00,VWS V14.01,2013-05-25 13:45:00,
2013-05-25 16:46:00,78.8,49.6,29.94,SSW,202,2.2,6.4,36,0.00,,,0.00,VWS V14.01,2013-05-25 13:46:00,
2013-05-25 16:47:00,78.8,49.6,29.94,West,270,6.4,10.0,36,0.00,,,0.00,VWS V14.01,2013-05-25 13:47:00,
2013-05-25 16:48:00,79.0,47.4,29.93,SW,225,8.9,9.6,33,0.00,,,0.00,VWS V14.01,2013-05-25 13:48:00,
2013-05-25 16:49:00,79.0,47.4,29.94,South,180,14.5,14.5,33,0.00,,,0.00,VWS V14.01,2013-05-25 13:49:00,
2013-05-25 16:50:00,79.0,46.6,29.94,WSW,248,4.6,14.5,32,0.00,,,0.00,VWS V14.01,2013-05-25 13:50:00,
2013-05-25 16:51:00,79.0,47.4,29.93,SW,225,11.8,11.8,33,0.00,,,0.00,VWS V14.01,2013-05-25 13:51:00,
2013-05-25 16:52:00,78.8,48.1,29.93,WSW,248,8.9,11.8,34,0.00,,,0.00,VWS V14.01,2013-05-25 13:52:00,
2013-05-25 16:53:00,79.0,49.0,29.94,SW,225,0.0,8.9,35,0.00,,,0.00,VWS V14.01,2013-05-25 13:53:00,
2013-05-25 16:54:00,79.0,49.0,29.94,SW,225,0.0,0.0,35,0.00,,,0.00,VWS V14.01,2013-05-25 13:54:00,
2013-05-25 16:55:00,79.0,49.0,29.93,SW,225,0.0,0.0,35,0.00,,,0.00,VWS V14.01,2013-05-25 13:55:00,
2013-05-25 16:56:00,79.0,49.0,29.94,SW,225,0.0,0.0,35,0.00,,,0.00,VWS V14.01,2013-05-25 13:56:00,
2013-05-25 16:57:00,79.0,49.0,29.94,SW,225,0.0,0.0,35,0.00,,,0.00,VWS V14.01,2013-05-25 13:57:00,
2013-05-25 16:58:00,79.0,48.2,29.93,WSW,248,0.0,0.0,34,0.00,,,0.00,VWS V14.01,2013-05-25 13:58:00,
2013-05-25 16:59:00,79.0,48.2,29.93,WSW,248,0.0,0.0,34,0.00,,,0.00,VWS V14.01,2013-05-25 13:59:00,
2013-05-25 17:09:00,78.8,47.3,29.94,SW,225,4.9,4.9,33,0.00,,,0.00,VWS V14.01,2013-05-25 14:09:00,
2013-05-25 17:15:00,78.6,48.7,29.93,West,270,1.5,1.5,35,0.00,,,0.00,VWS V14.01,2013-05-25 14:15:00,
2013-05-25 17:21:00,79.0,48.2,29.93,SSE,158,0.0,0.0,34,0.00,,,0.00,VWS V14.01,2013-05-25 14:21:00,
2013-05-25 17:26:00,79.0,48.2,29.94,West,270,0.0,0.0,34,0.00,,,0.00,VWS V14.01,2013-05-25 14:26:00,
2013-05-25 17:32:00,78.8,48.8,29.93,WSW,248,6.2,6.2,35,0.00,,,0.00,VWS V14.01,2013-05-25 14:32:00,
2013-05-25 17:38:00,78.8,48.1,29.93,South,180,3.1,3.1,34,0.00,,,0.00,VWS V14.01,2013-05-25 14:38:00,
2013-05-25 17:43:00,78.4,48.5,29.93,SSW,202,11.4,11.4,35,0.00,,,0.00,VWS V14.01,2013-05-25 14:43:00,
2013-05-25 17:54:00,78.1,49.7,29.93,West,270,0.0,0.2,37,0.00,,,0.00,VWS V14.01,2013-05-25 14:54:00,
2013-05-25 17:59:00,78.1,49.0,29.93,South,180,9.6,9.6,36,0.00,,,0.00,VWS V14.01,2013-05-25 14:59:00,
2013-05-25 18:00:00,78.1,49.0,29.93,South,180,0.0,9.6,36,0.00,,,0.00,VWS V14.01,2013-05-25 15:00:00,
2013-05-25 18:01:00,78.1,49.0,29.93,South,180,0.0,0.0,36,0.00,,,0.00,VWS V14.01,2013-05-25 15:01:00,
2013-05-25 18:02:00,78.1,49.0,29.94,SW,225,0.0,0.0,36,0.00,,,0.00,VWS V14.01,2013-05-25 15:02:00,
2013-05-25 18:03:00,78.1,49.0,29.93,SW,225,0.0,0.0,36,0.00,,,0.00,VWS V14.01,2013-05-25 15:03:00,
2013-05-25 18:04:00,77.7,49.3,29.93,WSW,248,8.7,10.9,37,0.00,,,0.00,VWS V14.01,2013-05-25 15:04:00,
2013-05-25 18:05:00,77.5,49.2,29.93,South,180,10.0,10.0,37,0.00,,,0.00,VWS V14.01,2013-05-25 15:05:00,
2013-05-25 18:06:00,77.5,49.2,29.93,SW,225,10.5,10.5,37,0.00,,,0.00,VWS V14.01,2013-05-25 15:06:00,
2013-05-25 18:07:00,77.5,49.2,29.93,West,270,4.4,10.5,37,0.00,,,0.00,VWS V14.01,2013-05-25 15:07:00,
2013-05-25 18:08:00,77.2,48.9,29.93,SW,225,4.6,9.6,37,0.00,,,0.00,VWS V14.01,2013-05-25 15:08:00,
2013-05-25 18:09:00,77.2,48.9,29.92,WNW,292,0.0,4.6,37,0.00,,,0.00,VWS V14.01,2013-05-25 15:09:00,
2013-05-25 18:10:00,77.2,48.9,29.93,WNW,292,0.0,0.0,37,0.00,,,0.00,VWS V14.01,2013-05-25 15:10:00,
2013-05-25 18:11:00,77.2,49.6,29.93,WSW,248,0.0,0.0,38,0.00,,,0.00,VWS V14.01,2013-05-25 15:11:00,
2013-05-25 18:12:00,77.2,49.6,29.93,WSW,248,0.0,0.0,38,0.00,,,0.00,VWS V14.01,2013-05-25 15:12:00,
2013-05-25 18:13:00,77.0,49.4,29.93,WSW,248,9.8,9.8,38,0.00,,,0.00,VWS V14.01,2013-05-25 15:13:00,
2013-05-25 18:14:00,77.0,48.7,29.93,WSW,248,0.6,9.8,37,0.00,,,0.00,VWS V14.01,2013-05-25 15:14:00,
2013-05-25 18:15:00,77.0,48.7,29.93,WSW,248,0.6,0.6,37,0.00,,,0.00,VWS V14.01,2013-05-25 15:15:00,
2013-05-25 18:16:00,77.2,49.6,29.93,SSW,202,12.3,12.3,38,0.00,,,0.00,VWS V14.01,2013-05-25 15:16:00,
2013-05-25 18:17:00,77.2,49.6,29.93,SW,225,0.0,12.3,38,0.00,,,0.00,VWS V14.01,2013-05-25 15:17:00,
2013-05-25 18:18:00,77.2,49.6,29.93,SW,225,0.0,0.0,38,0.00,,,0.00,VWS V14.01,2013-05-25 15:18:00,
2013-05-25 18:27:00,77.2,48.9,29.93,WSW,248,1.5,1.5,37,0.00,,,0.00,VWS V14.01,2013-05-25 15:27:00,
2013-05-25 18:44:00,77.2,48.9,29.93,WSW,248,5.5,5.5,37,0.00,,,0.00,VWS V14.01,2013-05-25 15:44:00,
2013-05-25 18:50:00,77.2,49.6,29.93,South,180,3.8,3.8,38,0.00,,,0.00,VWS V14.01,2013-05-25 15:50:00,
2013-05-25 19:09:00,76.5,49.0,29.93,SSE,158,0.0,0.0,38,0.00,,,0.00,VWS V14.01,2013-05-25 16:09:00,
2013-05-25 19:19:00,76.1,48.6,29.94,WSW,248,0.2,0.2,38,0.00,,,0.00,VWS V14.01,2013-05-25 16:19:00,
2013-05-25 19:25:00,76.1,48.6,29.94,SSW,202,2.0,2.0,38,0.00,,,0.00,VWS V14.01,2013-05-25 16:25:00,
2013-05-25 19:30:00,76.1,49.3,29.94,SW,225,3.5,8.5,39,0.00,,,0.00,VWS V14.01,2013-05-25 16:30:00,
2013-05-25 19:36:00,75.9,48.5,29.94,South,180,0.0,0.0,38,0.00,,,0.00,VWS V14.01,2013-05-25 16:36:00,
2013-05-25 19:43:00,76.1,48.6,29.94,WSW,248,0.0,2.9,38,0.00,,,0.00,VWS V14.01,2013-05-25 16:43:00,
2013-05-25 19:48:00,76.1,48.6,29.94,West,270,0.0,0.0,38,0.00,,,0.00,VWS V14.01,2013-05-25 16:48:00,
2013-05-25 19:59:00,75.7,49.0,29.94,SSW,202,1.1,5.3,39,0.00,,,0.00,VWS V14.01,2013-05-25 16:59:00,
2013-05-25 20:04:00,75.6,48.9,29.94,SW,225,0.0,0.0,39,0.00,,,0.00,VWS V14.01,2013-05-25 17:04:00,
2013-05-25 20:09:00,75.4,48.7,29.94,SW,225,0.0,0.0,39,0.00,,,0.00,VWS V14.01,2013-05-25 17:09:00,
2013-05-25 20:15:00,74.8,48.8,29.94,WSW,248,2.4,2.4,40,0.00,,,0.00,VWS V14.01,2013-05-25 17:15:00,
2013-05-25 20:23:00,74.7,49.4,29.95,West,270,0.0,0.0,41,0.00,,,0.00,VWS V14.01,2013-05-25 17:23:00,
2013-05-25 20:30:00,74.5,49.2,29.95,WSW,248,0.0,0.0,41,0.00,,,0.00,VWS V14.01,2013-05-25 17:30:00,
2013-05-25 20:39:00,74.1,49.5,29.95,West,270,1.1,1.1,42,0.00,,,0.00,VWS V14.01,2013-05-25 17:39:00,
2013-05-25 20:45:00,73.9,49.3,29.95,SSW,202,0.0,0.0,42,0.00,,,0.00,VWS V14.01,2013-05-25 17:45:00,
2013-05-25 20:50:00,73.6,49.7,29.96,SW,225,4.2,4.2,43,0.00,,,0.00,VWS V14.01,2013-05-25 17:50:00,
2013-05-25 20:55:00,73.4,49.5,29.96,SW,225,0.0,0.0,43,0.00,,,0.00,VWS V14.01,2013-05-25 17:55:00,
2013-05-25 21:01:00,73.4,49.5,29.96,SW,225,4.9,9.6,43,0.00,,,0.00,VWS V14.01,2013-05-25 18:01:00,
2013-05-25 21:06:00,73.4,50.2,29.96,SW,225,0.0,0.0,44,0.00,,,0.00,VWS V14.01,2013-05-25 18:06:00,
2013-05-25 21:11:00,73.2,50.0,29.96,WSW,248,2.2,2.2,44,0.00,,,0.00,VWS V14.01,2013-05-25 18:11:00,
2013-05-25 21:16:00,73.0,50.4,29.96,WSW,248,0.0,0.0,45,0.00,,,0.00,VWS V14.01,2013-05-25 18:16:00,
2013-05-25 21:22:00,72.9,49.7,29.96,SSW,202,0.0,0.0,44,0.00,,,0.00,VWS V14.01,2013-05-25 18:22:00,
2013-05-25 21:27:00,72.7,50.1,29.96,WSW,248,2.2,2.2,45,0.00,,,0.00,VWS V14.01,2013-05-25 18:27:00,
2013-05-25 21:33:00,72.7,50.1,29.96,WSW,248,0.0,0.0,45,0.00,,,0.00,VWS V14.01,2013-05-25 18:33:00,
2013-05-25 21:38:00,72.5,49.9,29.96,WSW,248,0.0,0.0,45,0.00,,,0.00,VWS V14.01,2013-05-25 18:38:00,